Aguascalientes, México

9:37 AM CDT en Abril 22, 2018 (GMT -0500)
Jesus Teran International | | Change Station

Alt 6109 ft 21.71 °N, 102.32 °W | Updated 56 minutes ago

Nublado
Nublado
61 ° F
Sensación térmica 61 ° F
N
6
Viento Variable Viento desde Sur

Hoy
Alta -- | Baja -- ° F
--% Posibilidad de precipitaciones
Ayer
Alta -- | Baja -- ° F
Precip. -- pul
Presión 30.25 pul
Visibilidad 10.0 Millas
Nubes Nubes dispersas 10000 ft
Muy nublado 11000 ft
Nublado 25000 ft
Punto de rocío 37 ° F
Humedad 42%
Precipitaciones 0.00 pul
Espesor de la nieve No disponible.
7:23 AM 8:11 PM
Creciente, 47% visible
METAR MMAS 221341Z 19005KT 10SM SCT100 BKN110 OVC250 16/03 A3025 RMK 8/077 BINOVC
Presión 30.25 pul
Visibilidad 10.0 Millas
Nubes Nubes dispersas 10000 ft
Muy nublado 11000 ft
Nublado 25000 ft
Punto de rocío 37 ° F
Humedad 42%
Precipitaciones 0.00 pul
Espesor de la nieve No disponible.
7:23 AM 8:11 PM
Creciente, 47% visible
METAR MMAS 221341Z 19005KT 10SM SCT100 BKN110 OVC250 16/03 A3025 RMK 8/077 BINOVC

Get Severe Weather Alerts

Thanks for signing up!

Be on the lookout for a verification email in your inbox.

You'll start receiving the daily forecast at 6 AM.

×

10-Day Weather Forecast

No radar image for this location.
×

Almanac

Astronomía

Apr. 22, 2018 Salida Puesta
Hora real
Crepúsculo civil
Crepúsculo náutico
Crepúsculo astronómico
Luna
Horas de luz
Horas de luz
Tomorrow will be .
, % of the Moon is Illuminated

Extremos de hoy

Máximos del país Bajas del país

Community

WunderPhotos

Category 6

Welcome to Category 6. This is the collective home for Weather Underground's featured writeups by Dr. Jeff Masters (right), Bob Henson (left), Chris Burt, and other regular contributors.

Nearby

Calidad del aire

  Calidad del aire Índice AQ Contaminante
Not available.

Grosos de nieve

Estación Profundido Altura

Actividad de terremotos

Ciudad Distance Mag. Tiempo y dato
Magnitud mínima muestra es 2,5.

Temperaturas de aguas costeras

Lugar Temperatura

Stations

Estaciones meteorológicas cercanas

Ubicación de la estación Temp. Vientos helados Punto de rocío Humedad Viento Precip. Alt Actualizado Tipo